sensor_id;sensor_type;location;lat;lon;timestamp;P1;durP1;ratioP1;P2;durP2;ratioP2
44606;SDS011;30315;46.072;14.474;2023-04-24T00:00:11;5.70;;;4.72;;
44606;SDS011;30315;46.072;14.474;2023-04-24T00:02:46;4.18;;;3.88;;
44606;SDS011;30315;46.072;14.474;2023-04-24T00:05:17;4.40;;;4.03;;
44606;SDS011;30315;46.072;14.474;2023-04-24T00:07:45;4.45;;;4.07;;
44606;SDS011;30315;46.072;14.474;2023-04-24T00:10:12;4.30;;;4.00;;
44606;SDS011;30315;46.072;14.474;2023-04-24T00:12:39;4.75;;;4.35;;
44606;SDS011;30315;46.072;14.474;2023-04-24T00:15:08;5.10;;;4.70;;
44606;SDS011;30315;46.072;14.474;2023-04-24T00:17:36;4.82;;;4.50;;
44606;SDS011;30315;46.072;14.474;2023-04-24T00:20:04;4.25;;;4.03;;
44606;SDS011;30315;46.072;14.474;2023-04-24T00:22:33;4.93;;;4.57;;
44606;SDS011;30315;46.072;14.474;2023-04-24T00:25:01;4.30;;;4.00;;
44606;SDS011;30315;46.072;14.474;2023-04-24T00:27:28;4.80;;;4.50;;
44606;SDS011;30315;46.072;14.474;2023-04-24T00:29:55;4.18;;;3.97;;
44606;SDS011;30315;46.072;14.474;2023-04-24T00:32:22;5.38;;;4.53;;
44606;SDS011;30315;46.072;14.474;2023-04-24T00:34:50;4.22;;;3.83;;
44606;SDS011;30315;46.072;14.474;2023-04-24T00:37:17;4.63;;;4.32;;
44606;SDS011;30315;46.072;14.474;2023-04-24T00:39:44;4.90;;;4.60;;
44606;SDS011;30315;46.072;14.474;2023-04-24T00:42:11;4.20;;;3.85;;
44606;SDS011;30315;46.072;14.474;2023-04-24T00:44:39;7.28;;;4.28;;
44606;SDS011;30315;46.072;14.474;2023-04-24T00:47:07;4.50;;;4.20;;
44606;SDS011;30315;46.072;14.474;2023-04-24T00:49:34;5.30;;;4.80;;
44606;SDS011;30315;46.072;14.474;2023-04-24T00:52:01;4.80;;;4.40;;
44606;SDS011;30315;46.072;14.474;2023-04-24T00:54:29;4.35;;;4.05;;
44606;SDS011;30315;46.072;14.474;2023-04-24T00:56:56;4.90;;;4.50;;
44606;SDS011;30315;46.072;14.474;2023-04-24T00:59:23;4.97;;;4.60;;
44606;SDS011;30315;46.072;14.474;2023-04-24T01:01:51;4.30;;;4.00;;
44606;SDS011;30315;46.072;14.474;2023-04-24T01:04:19;4.55;;;4.15;;
44606;SDS011;30315;46.072;14.474;2023-04-24T01:06:50;4.95;;;4.43;;
44606;SDS011;30315;46.072;14.474;2023-04-24T01:09:21;4.95;;;4.45;;
44606;SDS011;30315;46.072;14.474;2023-04-24T01:11:50;4.80;;;4.40;;
44606;SDS011;30315;46.072;14.474;2023-04-24T01:14:18;5.40;;;4.90;;
44606;SDS011;30315;46.072;14.474;2023-04-24T01:16:48;5.00;;;4.70;;
44606;SDS011;30315;46.072;14.474;2023-04-24T01:19:15;4.97;;;4.60;;
44606;SDS011;30315;46.072;14.474;2023-04-24T01:21:45;4.60;;;4.32;;
44606;SDS011;30315;46.072;14.474;2023-04-24T01:24:17;5.10;;;4.60;;
44606;SDS011;30315;46.072;14.474;2023-04-24T01:26:46;5.07;;;4.67;;
44606;SDS011;30315;46.072;14.474;2023-04-24T01:29:14;4.57;;;4.10;;
44606;SDS011;30315;46.072;14.474;2023-04-24T01:31:42;4.95;;;4.55;;
44606;SDS011;30315;46.072;14.474;2023-04-24T01:34:10;4.43;;;4.13;;
44606;SDS011;30315;46.072;14.474;2023-04-24T01:36:38;4.90;;;4.50;;
44606;SDS011;30315;46.072;14.474;2023-04-24T01:39:06;4.80;;;4.38;;
44606;SDS011;30315;46.072;14.474;2023-04-24T01:41:33;4.75;;;4.45;;
44606;SDS011;30315;46.072;14.474;2023-04-24T01:44:01;4.78;;;4.47;;
44606;SDS011;30315;46.072;14.474;2023-04-24T01:46:28;5.95;;;4.47;;
44606;SDS011;30315;46.072;14.474;2023-04-24T01:48:58;4.70;;;4.38;;
44606;SDS011;30315;46.072;14.474;2023-04-24T01:53:55;5.17;;;4.70;;
44606;SDS011;30315;46.072;14.474;2023-04-24T01:56:23;4.90;;;4.50;;
44606;SDS011;30315;46.072;14.474;2023-04-24T01:58:51;4.97;;;4.55;;
44606;SDS011;30315;46.072;14.474;2023-04-24T02:01:20;4.80;;;4.50;;
44606;SDS011;30315;46.072;14.474;2023-04-24T02:03:49;4.97;;;4.45;;
44606;SDS011;30315;46.072;14.474;2023-04-24T02:06:18;4.45;;;4.15;;
44606;SDS011;30315;46.072;14.474;2023-04-24T02:08:46;5.25;;;4.13;;
44606;SDS011;30315;46.072;14.474;2023-04-24T02:11:13;4.95;;;4.40;;
44606;SDS011;30315;46.072;14.474;2023-04-24T02:13:41;5.32;;;4.82;;
44606;SDS011;30315;46.072;14.474;2023-04-24T02:16:08;5.25;;;4.40;;
44606;SDS011;30315;46.072;14.474;2023-04-24T02:21:24;4.97;;;4.22;;
44606;SDS011;30315;46.072;14.474;2023-04-24T02:23:51;5.30;;;4.90;;
44606;SDS011;30315;46.072;14.474;2023-04-24T02:26:18;6.72;;;5.25;;
44606;SDS011;30315;46.072;14.474;2023-04-24T02:28:46;5.97;;;4.38;;
44606;SDS011;30315;46.072;14.474;2023-04-24T02:31:13;4.75;;;4.45;;
44606;SDS011;30315;46.072;14.474;2023-04-24T02:33:40;5.43;;;4.45;;
44606;SDS011;30315;46.072;14.474;2023-04-24T02:36:07;4.70;;;4.40;;
44606;SDS011;30315;46.072;14.474;2023-04-24T02:38:34;5.50;;;4.97;;
44606;SDS011;30315;46.072;14.474;2023-04-24T02:41:01;5.68;;;4.40;;
44606;SDS011;30315;46.072;14.474;2023-04-24T02:43:32;5.32;;;4.80;;
44606;SDS011;30315;46.072;14.474;2023-04-24T02:45:59;5.38;;;4.88;;
44606;SDS011;30315;46.072;14.474;2023-04-24T02:48:27;5.57;;;5.13;;
44606;SDS011;30315;46.072;14.474;2023-04-24T02:50:54;5.18;;;4.72;;
44606;SDS011;30315;46.072;14.474;2023-04-24T02:53:21;4.97;;;4.63;;
44606;SDS011;30315;46.072;14.474;2023-04-24T02:55:49;5.40;;;4.40;;
44606;SDS011;30315;46.072;14.474;2023-04-24T02:58:16;4.85;;;4.45;;
44606;SDS011;30315;46.072;14.474;2023-04-24T03:00:43;5.38;;;5.00;;
44606;SDS011;30315;46.072;14.474;2023-04-24T03:03:10;5.10;;;4.80;;
44606;SDS011;30315;46.072;14.474;2023-04-24T03:05:38;5.97;;;4.80;;
44606;SDS011;30315;46.072;14.474;2023-04-24T03:08:05;5.85;;;4.95;;
44606;SDS011;30315;46.072;14.474;2023-04-24T03:10:32;5.45;;;4.97;;
44606;SDS011;30315;46.072;14.474;2023-04-24T03:12:59;5.20;;;4.78;;
44606;SDS011;30315;46.072;14.474;2023-04-24T03:15:26;6.25;;;4.80;;
44606;SDS011;30315;46.072;14.474;2023-04-24T03:17:54;5.55;;;4.80;;
44606;SDS011;30315;46.072;14.474;2023-04-24T03:20:22;5.72;;;4.57;;
44606;SDS011;30315;46.072;14.474;2023-04-24T03:22:50;5.18;;;4.88;;
44606;SDS011;30315;46.072;14.474;2023-04-24T03:25:17;4.93;;;4.53;;
44606;SDS011;30315;46.072;14.474;2023-04-24T03:27:44;5.60;;;5.10;;
44606;SDS011;30315;46.072;14.474;2023-04-24T03:30:32;5.30;;;4.85;;
44606;SDS011;30315;46.072;14.474;2023-04-24T03:33:00;5.45;;;4.90;;
44606;SDS011;30315;46.072;14.474;2023-04-24T03:35:32;5.53;;;5.05;;
44606;SDS011;30315;46.072;14.474;2023-04-24T03:38:02;5.40;;;5.00;;
44606;SDS011;30315;46.072;14.474;2023-04-24T03:40:46;6.22;;;5.03;;
44606;SDS011;30315;46.072;14.474;2023-04-24T03:43:39;5.85;;;5.22;;
44606;SDS011;30315;46.072;14.474;2023-04-24T03:46:06;5.60;;;5.20;;
44606;SDS011;30315;46.072;14.474;2023-04-24T03:48:39;9.80;;;5.35;;
44606;SDS011;30315;46.072;14.474;2023-04-24T03:51:08;6.10;;;5.40;;
44606;SDS011;30315;46.072;14.474;2023-04-24T03:53:37;7.78;;;5.22;;
44606;SDS011;30315;46.072;14.474;2023-04-24T03:56:05;6.60;;;5.18;;
44606;SDS011;30315;46.072;14.474;2023-04-24T03:58:33;5.72;;;5.22;;
44606;SDS011;30315;46.072;14.474;2023-04-24T04:01:00;7.18;;;5.55;;
44606;SDS011;30315;46.072;14.474;2023-04-24T04:03:50;5.80;;;5.30;;
44606;SDS011;30315;46.072;14.474;2023-04-24T04:06:21;5.25;;;4.72;;
44606;SDS011;30315;46.072;14.474;2023-04-24T04:08:50;7.45;;;5.97;;
44606;SDS011;30315;46.072;14.474;2023-04-24T04:11:17;6.20;;;5.70;;
44606;SDS011;30315;46.072;14.474;2023-04-24T04:13:44;5.60;;;5.18;;
44606;SDS011;30315;46.072;14.474;2023-04-24T04:16:17;6.13;;;5.00;;
44606;SDS011;30315;46.072;14.474;2023-04-24T04:18:51;6.70;;;5.75;;
44606;SDS011;30315;46.072;14.474;2023-04-24T04:21:19;6.35;;;5.72;;
44606;SDS011;30315;46.072;14.474;2023-04-24T04:23:49;6.55;;;5.63;;
44606;SDS011;30315;46.072;14.474;2023-04-24T04:26:19;6.93;;;6.25;;
44606;SDS011;30315;46.072;14.474;2023-04-24T04:29:00;6.50;;;5.80;;
44606;SDS011;30315;46.072;14.474;2023-04-24T04:31:28;6.32;;;5.68;;
44606;SDS011;30315;46.072;14.474;2023-04-24T04:34:00;7.63;;;6.68;;
44606;SDS011;30315;46.072;14.474;2023-04-24T04:36:30;7.80;;;7.10;;
44606;SDS011;30315;46.072;14.474;2023-04-24T04:39:07;8.23;;;7.43;;
44606;SDS011;30315;46.072;14.474;2023-04-24T04:41:44;7.40;;;6.72;;
44606;SDS011;30315;46.072;14.474;2023-04-24T04:44:17;8.20;;;7.00;;
44606;SDS011;30315;46.072;14.474;2023-04-24T04:46:45;7.43;;;6.80;;
44606;SDS011;30315;46.072;14.474;2023-04-24T04:49:26;7.05;;;6.47;;
44606;SDS011;30315;46.072;14.474;2023-04-24T04:51:55;6.80;;;6.25;;
44606;SDS011;30315;46.072;14.474;2023-04-24T04:54:25;7.70;;;6.53;;
44606;SDS011;30315;46.072;14.474;2023-04-24T04:56:53;7.20;;;6.60;;
44606;SDS011;30315;46.072;14.474;2023-04-24T04:59:20;6.25;;;5.75;;
44606;SDS011;30315;46.072;14.474;2023-04-24T05:01:52;9.45;;;6.47;;
44606;SDS011;30315;46.072;14.474;2023-04-24T05:04:21;9.00;;;6.75;;
44606;SDS011;30315;46.072;14.474;2023-04-24T05:06:48;8.45;;;6.85;;
44606;SDS011;30315;46.072;14.474;2023-04-24T05:09:19;6.93;;;6.32;;
44606;SDS011;30315;46.072;14.474;2023-04-24T05:11:51;7.03;;;6.32;;
44606;SDS011;30315;46.072;14.474;2023-04-24T05:14:21;7.22;;;6.60;;
44606;SDS011;30315;46.072;14.474;2023-04-24T05:16:49;7.00;;;6.47;;
44606;SDS011;30315;46.072;14.474;2023-04-24T05:19:19;8.48;;;7.45;;
44606;SDS011;30315;46.072;14.474;2023-04-24T05:21:51;13.95;;;8.35;;
44606;SDS011;30315;46.072;14.474;2023-04-24T05:24:19;12.02;;;9.77;;
44606;SDS011;30315;46.072;14.474;2023-04-24T05:27:06;13.70;;;9.50;;
44606;SDS011;30315;46.072;14.474;2023-04-24T05:29:37;12.40;;;9.38;;
44606;SDS011;30315;46.072;14.474;2023-04-24T05:32:05;9.55;;;8.65;;
44606;SDS011;30315;46.072;14.474;2023-04-24T05:34:33;10.38;;;8.52;;
44606;SDS011;30315;46.072;14.474;2023-04-24T05:37:01;9.13;;;8.23;;
44606;SDS011;30315;46.072;14.474;2023-04-24T05:39:29;8.63;;;7.88;;
44606;SDS011;30315;46.072;14.474;2023-04-24T05:42:00;9.65;;;8.18;;
44606;SDS011;30315;46.072;14.474;2023-04-24T05:44:31;8.05;;;7.28;;
44606;SDS011;30315;46.072;14.474;2023-04-24T05:46:58;8.05;;;7.10;;
44606;SDS011;30315;46.072;14.474;2023-04-24T05:49:27;8.15;;;7.32;;
44606;SDS011;30315;46.072;14.474;2023-04-24T05:51:57;8.75;;;6.55;;
44606;SDS011;30315;46.072;14.474;2023-04-24T05:54:24;7.30;;;6.70;;
44606;SDS011;30315;46.072;14.474;2023-04-24T05:56:55;7.70;;;6.95;;
44606;SDS011;30315;46.072;14.474;2023-04-24T05:59:36;7.18;;;6.47;;
44606;SDS011;30315;46.072;14.474;2023-04-24T06:02:05;8.48;;;6.72;;
44606;SDS011;30315;46.072;14.474;2023-04-24T06:04:33;8.52;;;6.97;;
44606;SDS011;30315;46.072;14.474;2023-04-24T06:07:01;8.18;;;7.47;;
44606;SDS011;30315;46.072;14.474;2023-04-24T06:09:29;8.32;;;7.50;;
44606;SDS011;30315;46.072;14.474;2023-04-24T06:11:57;7.95;;;7.30;;
44606;SDS011;30315;46.072;14.474;2023-04-24T06:14:32;8.63;;;7.82;;
44606;SDS011;30315;46.072;14.474;2023-04-24T06:17:13;9.38;;;8.15;;
44606;SDS011;30315;46.072;14.474;2023-04-24T06:19:41;9.48;;;8.15;;
44606;SDS011;30315;46.072;14.474;2023-04-24T06:22:09;12.60;;;9.10;;
44606;SDS011;30315;46.072;14.474;2023-04-24T06:24:37;18.48;;;9.48;;
44606;SDS011;30315;46.072;14.474;2023-04-24T06:27:06;11.57;;;9.65;;
44606;SDS011;30315;46.072;14.474;2023-04-24T06:29:41;14.07;;;9.80;;
44606;SDS011;30315;46.072;14.474;2023-04-24T06:32:09;11.68;;;10.07;;
44606;SDS011;30315;46.072;14.474;2023-04-24T06:34:40;10.80;;;9.57;;
44606;SDS011;30315;46.072;14.474;2023-04-24T06:37:13;10.20;;;9.20;;
44606;SDS011;30315;46.072;14.474;2023-04-24T06:39:43;9.00;;;8.18;;
44606;SDS011;30315;46.072;14.474;2023-04-24T06:42:11;14.23;;;8.85;;
44606;SDS011;30315;46.072;14.474;2023-04-24T06:44:42;11.30;;;8.77;;
44606;SDS011;30315;46.072;14.474;2023-04-24T06:47:09;10.77;;;8.90;;
44606;SDS011;30315;46.072;14.474;2023-04-24T06:49:39;8.60;;;7.80;;
44606;SDS011;30315;46.072;14.474;2023-04-24T06:52:10;9.23;;;8.13;;
44606;SDS011;30315;46.072;14.474;2023-04-24T06:54:37;8.68;;;7.82;;
44606;SDS011;30315;46.072;14.474;2023-04-24T06:57:05;8.88;;;7.97;;
44606;SDS011;30315;46.072;14.474;2023-04-24T06:59:32;7.97;;;7.22;;
44606;SDS011;30315;46.072;14.474;2023-04-24T07:01:59;8.88;;;7.97;;
44606;SDS011;30315;46.072;14.474;2023-04-24T07:04:27;12.13;;;8.30;;
44606;SDS011;30315;46.072;14.474;2023-04-24T07:06:57;10.07;;;7.60;;
44606;SDS011;30315;46.072;14.474;2023-04-24T07:09:25;8.65;;;7.85;;
44606;SDS011;30315;46.072;14.474;2023-04-24T07:11:53;8.27;;;7.47;;
44606;SDS011;30315;46.072;14.474;2023-04-24T07:14:20;9.90;;;7.47;;
44606;SDS011;30315;46.072;14.474;2023-04-24T07:16:48;10.73;;;8.20;;
44606;SDS011;30315;46.072;14.474;2023-04-24T07:19:20;9.73;;;7.57;;
44606;SDS011;30315;46.072;14.474;2023-04-24T07:21:50;11.25;;;8.68;;
44606;SDS011;30315;46.072;14.474;2023-04-24T07:24:18;9.48;;;7.78;;
44606;SDS011;30315;46.072;14.474;2023-04-24T07:26:48;9.38;;;7.63;;
44606;SDS011;30315;46.072;14.474;2023-04-24T07:29:15;8.48;;;7.63;;
44606;SDS011;30315;46.072;14.474;2023-04-24T07:31:42;9.25;;;8.30;;
44606;SDS011;30315;46.072;14.474;2023-04-24T07:34:14;8.30;;;7.50;;
44606;SDS011;30315;46.072;14.474;2023-04-24T07:36:40;9.80;;;7.72;;
44606;SDS011;30315;46.072;14.474;2023-04-24T07:39:08;9.25;;;7.90;;
44606;SDS011;30315;46.072;14.474;2023-04-24T07:41:35;9.40;;;7.07;;
44606;SDS011;30315;46.072;14.474;2023-04-24T07:44:03;6.75;;;6.15;;
44606;SDS011;30315;46.072;14.474;2023-04-24T07:46:30;7.65;;;6.25;;
44606;SDS011;30315;46.072;14.474;2023-04-24T07:48:58;9.93;;;7.45;;
44606;SDS011;30315;46.072;14.474;2023-04-24T07:51:39;7.35;;;6.65;;
44606;SDS011;30315;46.072;14.474;2023-04-24T07:54:08;8.45;;;6.35;;
44606;SDS011;30315;46.072;14.474;2023-04-24T07:56:36;7.32;;;6.65;;
44606;SDS011;30315;46.072;14.474;2023-04-24T07:59:06;10.63;;;6.80;;
44606;SDS011;30315;46.072;14.474;2023-04-24T08:01:33;7.65;;;6.93;;
44606;SDS011;30315;46.072;14.474;2023-04-24T08:04:00;10.05;;;7.10;;
44606;SDS011;30315;46.072;14.474;2023-04-24T08:06:29;7.45;;;6.65;;
44606;SDS011;30315;46.072;14.474;2023-04-24T08:08:57;7.60;;;5.47;;
44606;SDS011;30315;46.072;14.474;2023-04-24T08:11:27;6.13;;;5.55;;
44606;SDS011;30315;46.072;14.474;2023-04-24T08:13:55;7.43;;;5.65;;
44606;SDS011;30315;46.072;14.474;2023-04-24T08:16:22;8.80;;;5.60;;
44606;SDS011;30315;46.072;14.474;2023-04-24T08:18:53;9.43;;;5.90;;
44606;SDS011;30315;46.072;14.474;2023-04-24T08:21:20;6.72;;;5.30;;
44606;SDS011;30315;46.072;14.474;2023-04-24T08:23:47;5.80;;;5.20;;
44606;SDS011;30315;46.072;14.474;2023-04-24T08:26:16;6.97;;;4.85;;
44606;SDS011;30315;46.072;14.474;2023-04-24T08:28:44;5.88;;;5.38;;
44606;SDS011;30315;46.072;14.474;2023-04-24T08:31:11;5.65;;;5.10;;
44606;SDS011;30315;46.072;14.474;2023-04-24T08:33:38;6.55;;;5.57;;
44606;SDS011;30315;46.072;14.474;2023-04-24T08:36:07;5.53;;;5.03;;
44606;SDS011;30315;46.072;14.474;2023-04-24T08:38:34;5.60;;;4.90;;
44606;SDS011;30315;46.072;14.474;2023-04-24T08:41:02;9.27;;;5.05;;
44606;SDS011;30315;46.072;14.474;2023-04-24T08:43:31;5.38;;;4.90;;
44606;SDS011;30315;46.072;14.474;2023-04-24T08:46:00;5.05;;;4.65;;
44606;SDS011;30315;46.072;14.474;2023-04-24T08:48:32;5.93;;;5.43;;
44606;SDS011;30315;46.072;14.474;2023-04-24T08:51:00;5.60;;;5.18;;
44606;SDS011;30315;46.072;14.474;2023-04-24T08:53:29;6.70;;;5.82;;
44606;SDS011;30315;46.072;14.474;2023-04-24T08:55:57;5.18;;;4.78;;
44606;SDS011;30315;46.072;14.474;2023-04-24T08:58:25;7.13;;;5.63;;
44606;SDS011;30315;46.072;14.474;2023-04-24T09:00:55;7.40;;;5.20;;
44606;SDS011;30315;46.072;14.474;2023-04-24T09:03:24;7.82;;;5.55;;
44606;SDS011;30315;46.072;14.474;2023-04-24T09:05:56;4.97;;;4.63;;
44606;SDS011;30315;46.072;14.474;2023-04-24T09:08:25;5.97;;;5.25;;
44606;SDS011;30315;46.072;14.474;2023-04-24T09:10:54;4.75;;;4.45;;
44606;SDS011;30315;46.072;14.474;2023-04-24T09:13:21;7.80;;;5.40;;
44606;SDS011;30315;46.072;14.474;2023-04-24T09:15:49;5.65;;;5.00;;
44606;SDS011;30315;46.072;14.474;2023-04-24T09:18:17;5.97;;;4.78;;
44606;SDS011;30315;46.072;14.474;2023-04-24T09:20:59;7.97;;;5.45;;
44606;SDS011;30315;46.072;14.474;2023-04-24T09:23:32;5.07;;;4.68;;
44606;SDS011;30315;46.072;14.474;2023-04-24T09:26:01;5.45;;;4.97;;
44606;SDS011;30315;46.072;14.474;2023-04-24T09:28:36;8.85;;;5.85;;
44606;SDS011;30315;46.072;14.474;2023-04-24T09:31:06;7.47;;;5.07;;
44606;SDS011;30315;46.072;14.474;2023-04-24T09:33:40;6.28;;;5.50;;
44606;SDS011;30315;46.072;14.474;2023-04-24T09:36:20;6.60;;;5.50;;
44606;SDS011;30315;46.072;14.474;2023-04-24T09:38:57;6.45;;;5.90;;
44606;SDS011;30315;46.072;14.474;2023-04-24T09:41:28;7.22;;;5.53;;
44606;SDS011;30315;46.072;14.474;2023-04-24T09:43:57;6.00;;;5.50;;
44606;SDS011;30315;46.072;14.474;2023-04-24T09:46:38;5.35;;;4.85;;
44606;SDS011;30315;46.072;14.474;2023-04-24T09:49:12;6.18;;;5.28;;
44606;SDS011;30315;46.072;14.474;2023-04-24T09:51:47;6.32;;;5.72;;
44606;SDS011;30315;46.072;14.474;2023-04-24T09:54:29;6.45;;;5.80;;
44606;SDS011;30315;46.072;14.474;2023-04-24T09:57:03;6.38;;;5.63;;
44606;SDS011;30315;46.072;14.474;2023-04-24T09:59:31;6.50;;;5.95;;
44606;SDS011;30315;46.072;14.474;2023-04-24T10:02:15;7.38;;;6.25;;
44606;SDS011;30315;46.072;14.474;2023-04-24T10:04:56;6.70;;;6.03;;
44606;SDS011;30315;46.072;14.474;2023-04-24T10:07:32;7.10;;;6.28;;
44606;SDS011;30315;46.072;14.474;2023-04-24T10:10:08;6.82;;;6.22;;
44606;SDS011;30315;46.072;14.474;2023-04-24T10:12:53;8.43;;;6.07;;
44606;SDS011;30315;46.072;14.474;2023-04-24T10:15:30;6.53;;;5.93;;
44606;SDS011;30315;46.072;14.474;2023-04-24T10:23:38;6.45;;;6.05;;
44606;SDS011;30315;46.072;14.474;2023-04-24T10:29:23;13.43;;;7.15;;
44606;SDS011;30315;46.072;14.474;2023-04-24T10:32:03;7.72;;;6.60;;
44606;SDS011;30315;46.072;14.474;2023-04-24T10:35:01;11.30;;;7.00;;
44606;SDS011;30315;46.072;14.474;2023-04-24T10:38:33;8.88;;;6.35;;
44606;SDS011;30315;46.072;14.474;2023-04-24T10:41:46;7.50;;;6.45;;
44606;SDS011;30315;46.072;14.474;2023-04-24T10:45:23;7.22;;;6.47;;
44606;SDS011;30315;46.072;14.474;2023-04-24T10:56:32;6.18;;;5.63;;
44606;SDS011;30315;46.072;14.474;2023-04-24T11:00:31;6.78;;;5.63;;
44606;SDS011;30315;46.072;14.474;2023-04-24T11:07:03;8.38;;;6.22;;
44606;SDS011;30315;46.072;14.474;2023-04-24T11:10:05;9.63;;;7.63;;
44606;SDS011;30315;46.072;14.474;2023-04-24T11:13:10;7.72;;;6.57;;
44606;SDS011;30315;46.072;14.474;2023-04-24T11:23:35;9.15;;;6.93;;
44606;SDS011;30315;46.072;14.474;2023-04-24T11:26:25;8.13;;;7.30;;
44606;SDS011;30315;46.072;14.474;2023-04-24T11:29:07;7.80;;;7.07;;
44606;SDS011;30315;46.072;14.474;2023-04-24T11:32:46;8.27;;;7.05;;
44606;SDS011;30315;46.072;14.474;2023-04-24T11:43:26;8.20;;;7.10;;
44606;SDS011;30315;46.072;14.474;2023-04-24T11:46:44;8.90;;;7.43;;
44606;SDS011;30315;46.072;14.474;2023-04-24T11:50:12;7.47;;;6.87;;
44606;SDS011;30315;46.072;14.474;2023-04-24T11:57:24;7.53;;;6.82;;
44606;SDS011;30315;46.072;14.474;2023-04-24T12:00:14;7.78;;;7.07;;
44606;SDS011;30315;46.072;14.474;2023-04-24T12:03:35;8.43;;;7.20;;
44606;SDS011;30315;46.072;14.474;2023-04-24T12:15:44;11.02;;;8.20;;
44606;SDS011;30315;46.072;14.474;2023-04-24T12:18:40;7.88;;;7.20;;
44606;SDS011;30315;46.072;14.474;2023-04-24T12:21:38;8.93;;;7.95;;
44606;SDS011;30315;46.072;14.474;2023-04-24T12:24:25;9.10;;;7.63;;
44606;SDS011;30315;46.072;14.474;2023-04-24T12:27:18;7.15;;;6.45;;
44606;SDS011;30315;46.072;14.474;2023-04-24T12:30:04;6.57;;;5.97;;
44606;SDS011;30315;46.072;14.474;2023-04-24T12:32:59;8.52;;;6.40;;
44606;SDS011;30315;46.072;14.474;2023-04-24T12:35:42;9.68;;;6.70;;
44606;SDS011;30315;46.072;14.474;2023-04-24T12:38:28;7.00;;;6.40;;
44606;SDS011;30315;46.072;14.474;2023-04-24T12:41:21;6.57;;;6.07;;
44606;SDS011;30315;46.072;14.474;2023-04-24T12:44:01;7.13;;;6.05;;
44606;SDS011;30315;46.072;14.474;2023-04-24T12:46:45;6.50;;;5.82;;
44606;SDS011;30315;46.072;14.474;2023-04-24T12:50:34;8.65;;;6.95;;
44606;SDS011;30315;46.072;14.474;2023-04-24T12:53:27;6.57;;;5.97;;
44606;SDS011;30315;46.072;14.474;2023-04-24T12:56:13;8.60;;;5.97;;
44606;SDS011;30315;46.072;14.474;2023-04-24T12:58:52;9.30;;;5.72;;
44606;SDS011;30315;46.072;14.474;2023-04-24T13:02:07;6.50;;;5.90;;
44606;SDS011;30315;46.072;14.474;2023-04-24T13:05:22;8.77;;;6.60;;
44606;SDS011;30315;46.072;14.474;2023-04-24T13:08:03;6.68;;;5.70;;
44606;SDS011;30315;46.072;14.474;2023-04-24T13:10:36;6.80;;;6.10;;
44606;SDS011;30315;46.072;14.474;2023-04-24T13:13:57;5.68;;;5.22;;
44606;SDS011;30315;46.072;14.474;2023-04-24T13:16:30;7.07;;;5.03;;
44606;SDS011;30315;46.072;14.474;2023-04-24T13:19:11;5.82;;;5.00;;
44606;SDS011;30315;46.072;14.474;2023-04-24T13:22:00;6.32;;;4.88;;
44606;SDS011;30315;46.072;14.474;2023-04-24T13:24:54;5.05;;;4.30;;
44606;SDS011;30315;46.072;14.474;2023-04-24T13:31:34;3.78;;;3.40;;
44606;SDS011;30315;46.072;14.474;2023-04-24T13:38:49;4.13;;;3.10;;
44606;SDS011;30315;46.072;14.474;2023-04-24T13:44:48;3.58;;;3.28;;
44606;SDS011;30315;46.072;14.474;2023-04-24T13:52:11;3.33;;;3.03;;
44606;SDS011;30315;46.072;14.474;2023-04-24T13:55:09;4.00;;;3.65;;
44606;SDS011;30315;46.072;14.474;2023-04-24T13:57:57;3.50;;;3.03;;
44606;SDS011;30315;46.072;14.474;2023-04-24T14:00:39;4.83;;;3.53;;
44606;SDS011;30315;46.072;14.474;2023-04-24T14:07:57;3.88;;;3.30;;
44606;SDS011;30315;46.072;14.474;2023-04-24T14:15:10;3.63;;;3.20;;
44606;SDS011;30315;46.072;14.474;2023-04-24T14:21:21;3.00;;;2.80;;
44606;SDS011;30315;46.072;14.474;2023-04-24T14:24:12;3.40;;;3.20;;
44606;SDS011;30315;46.072;14.474;2023-04-24T14:27:20;3.10;;;2.80;;
44606;SDS011;30315;46.072;14.474;2023-04-24T14:30:10;3.53;;;3.22;;
44606;SDS011;30315;46.072;14.474;2023-04-24T14:32:58;3.63;;;3.03;;
44606;SDS011;30315;46.072;14.474;2023-04-24T14:35:34;3.10;;;2.90;;
44606;SDS011;30315;46.072;14.474;2023-04-24T14:38:27;3.17;;;2.97;;
44606;SDS011;30315;46.072;14.474;2023-04-24T14:41:06;3.50;;;3.20;;
44606;SDS011;30315;46.072;14.474;2023-04-24T14:44:16;4.10;;;3.30;;
44606;SDS011;30315;46.072;14.474;2023-04-24T14:46:58;5.20;;;3.17;;
44606;SDS011;30315;46.072;14.474;2023-04-24T14:49:43;3.10;;;2.90;;
44606;SDS011;30315;46.072;14.474;2023-04-24T14:52:34;3.97;;;3.45;;
44606;SDS011;30315;46.072;14.474;2023-04-24T14:55:26;7.50;;;3.30;;
44606;SDS011;30315;46.072;14.474;2023-04-24T14:58:02;3.17;;;2.95;;
44606;SDS011;30315;46.072;14.474;2023-04-24T15:01:05;4.60;;;4.20;;
44606;SDS011;30315;46.072;14.474;2023-04-24T15:03:54;4.05;;;3.75;;
44606;SDS011;30315;46.072;14.474;2023-04-24T15:06:28;3.90;;;3.60;;
44606;SDS011;30315;46.072;14.474;2023-04-24T15:09:23;4.47;;;4.07;;
44606;SDS011;30315;46.072;14.474;2023-04-24T15:12:27;4.32;;;3.05;;
44606;SDS011;30315;46.072;14.474;2023-04-24T15:14:57;3.83;;;3.42;;
44606;SDS011;30315;46.072;14.474;2023-04-24T15:22:32;3.42;;;3.17;;
44606;SDS011;30315;46.072;14.474;2023-04-24T15:25:29;3.25;;;2.95;;
44606;SDS011;30315;46.072;14.474;2023-04-24T15:28:27;3.30;;;3.10;;
44606;SDS011;30315;46.072;14.474;2023-04-24T15:40:20;2.67;;;2.55;;
44606;SDS011;30315;46.072;14.474;2023-04-24T15:46:36;2.53;;;2.40;;
44606;SDS011;30315;46.072;14.474;2023-04-24T15:49:06;3.00;;;2.70;;
44606;SDS011;30315;46.072;14.474;2023-04-24T15:51:39;3.00;;;2.80;;
44606;SDS011;30315;46.072;14.474;2023-04-24T15:54:21;2.70;;;2.42;;
44606;SDS011;30315;46.072;14.474;2023-04-24T15:59:39;2.90;;;2.70;;
44606;SDS011;30315;46.072;14.474;2023-04-24T16:02:50;4.60;;;3.67;;
44606;SDS011;30315;46.072;14.474;2023-04-24T16:06:06;2.85;;;2.65;;
44606;SDS011;30315;46.072;14.474;2023-04-24T16:12:06;2.40;;;2.30;;
44606;SDS011;30315;46.072;14.474;2023-04-24T16:14:54;2.55;;;2.35;;
44606;SDS011;30315;46.072;14.474;2023-04-24T16:18:06;2.85;;;2.65;;
44606;SDS011;30315;46.072;14.474;2023-04-24T16:21:05;3.13;;;2.60;;
44606;SDS011;30315;46.072;14.474;2023-04-24T16:29:26;2.80;;;2.60;;
44606;SDS011;30315;46.072;14.474;2023-04-24T16:59:27;3.53;;;3.33;;
44606;SDS011;30315;46.072;14.474;2023-04-24T17:32:06;4.38;;;3.63;;
44606;SDS011;30315;46.072;14.474;2023-04-24T17:34:51;3.50;;;3.17;;
44606;SDS011;30315;46.072;14.474;2023-04-24T17:38:04;3.63;;;2.78;;
44606;SDS011;30315;46.072;14.474;2023-04-24T17:40:54;3.13;;;2.92;;
44606;SDS011;30315;46.072;14.474;2023-04-24T17:47:39;2.90;;;2.70;;
44606;SDS011;30315;46.072;14.474;2023-04-24T17:51:35;3.75;;;3.20;;
44606;SDS011;30315;46.072;14.474;2023-04-24T18:03:06;4.05;;;3.10;;
44606;SDS011;30315;46.072;14.474;2023-04-24T18:06:24;3.20;;;3.00;;
44606;SDS011;30315;46.072;14.474;2023-04-24T18:09:53;5.78;;;3.47;;
44606;SDS011;30315;46.072;14.474;2023-04-24T18:12:55;4.40;;;4.00;;
44606;SDS011;30315;46.072;14.474;2023-04-24T18:15:36;6.95;;;4.65;;
44606;SDS011;30315;46.072;14.474;2023-04-24T18:18:13;6.32;;;5.00;;
44606;SDS011;30315;46.072;14.474;2023-04-24T18:20:46;4.95;;;4.38;;
44606;SDS011;30315;46.072;14.474;2023-04-24T18:23:42;4.65;;;4.20;;
44606;SDS011;30315;46.072;14.474;2023-04-24T18:26:13;4.75;;;4.35;;
44606;SDS011;30315;46.072;14.474;2023-04-24T18:29:07;4.60;;;4.20;;
44606;SDS011;30315;46.072;14.474;2023-04-24T18:31:43;4.43;;;4.03;;
44606;SDS011;30315;46.072;14.474;2023-04-24T18:34:32;4.90;;;4.60;;